createdAt,value
2017-07-31T00:00:39.269Z,100095.08
2017-07-31T00:03:07.141Z,100099.91
2017-07-31T00:05:34.874Z,100101.86
2017-07-31T00:08:02.669Z,100095.91
2017-07-31T00:10:30.534Z,100094.23
2017-07-31T00:12:58.220Z,100088.25
2017-07-31T00:15:25.861Z,100095.79
2017-07-31T00:17:53.530Z,100090.28
2017-07-31T00:20:21.191Z,100087.16
2017-07-31T00:22:48.850Z,100092.23
2017-07-31T00:25:16.717Z,100087.80
2017-07-31T00:27:44.549Z,100083.73
2017-07-31T00:30:12.444Z,100089.22
2017-07-31T00:32:40.484Z,100078.59
2017-07-31T00:35:08.200Z,100079.89
2017-07-31T00:37:35.840Z,100077.47
2017-07-31T00:40:03.862Z,100071.37
2017-07-31T00:42:31.578Z,100073.32
2017-07-31T00:44:59.237Z,100072.28
2017-07-31T00:47:27.106Z,100070.30
2017-07-31T00:49:55.179Z,100070.78
2017-07-31T00:52:22.850Z,100070.39
2017-07-31T00:54:50.765Z,100070.70
2017-07-31T00:57:18.356Z,100076.94
2017-07-31T00:59:46.221Z,100073.05
2017-07-31T01:02:14.016Z,100078.17
2017-07-31T01:04:41.972Z,100076.05
2017-07-31T01:07:09.822Z,100080.96
2017-07-31T01:09:37.568Z,100078.72
2017-07-31T01:12:05.551Z,100079.56
2017-07-31T01:14:33.299Z,100081.50
2017-07-31T01:17:01.097Z,100077.15
2017-07-31T01:19:28.969Z,100077.56
2017-07-31T01:21:56.801Z,100074.51
2017-07-31T01:24:24.512Z,100076.15
2017-07-31T01:26:52.104Z,100083.61
2017-07-31T01:29:20.024Z,100080.25
2017-07-31T01:31:47.900Z,100079.34
2017-07-31T01:34:15.732Z,100082.73
2017-07-31T01:36:43.478Z,100083.03
2017-07-31T01:39:11.466Z,100078.36
2017-07-31T01:41:39.135Z,100078.56
2017-07-31T01:44:06.878Z,100074.94
2017-07-31T01:46:34.689Z,100074.95
2017-07-31T01:49:02.535Z,100081.45
2017-07-31T01:51:30.523Z,100068.23
2017-07-31T01:53:59.325Z,100080.55
2017-07-31T01:56:26.975Z,100077.03
2017-07-31T01:58:54.646Z,100075.59
2017-07-31T02:01:22.508Z,100069.08
2017-07-31T02:03:50.160Z,100069.30
2017-07-31T02:06:17.875Z,100067.87
2017-07-31T02:08:45.871Z,100069.51
2017-07-31T02:11:13.615Z,100069.06
2017-07-31T02:13:41.575Z,100072.95
2017-07-31T02:16:09.281Z,100069.33
2017-07-31T02:18:37.134Z,100066.11
2017-07-31T02:21:05.000Z,100069.36
2017-07-31T02:23:32.751Z,100068.89
2017-07-31T02:26:00.467Z,100067.44
2017-07-31T02:28:28.250Z,100071.03
2017-07-31T02:30:56.085Z,100076.69
2017-07-31T02:33:23.917Z,100071.88
2017-07-31T02:35:51.611Z,100073.55
2017-07-31T02:38:19.446Z,100079.30
2017-07-31T02:40:47.041Z,100078.59
2017-07-31T02:43:14.934Z,100083.19
2017-07-31T02:45:42.874Z,100077.32
2017-07-31T02:48:10.594Z,100084.09
2017-07-31T02:50:38.559Z,100087.91
2017-07-31T02:53:06.554Z,100091.74
2017-07-31T02:55:34.396Z,100093.81
2017-07-31T02:58:02.209Z,100093.09
2017-07-31T03:00:30.278Z,100096.91
2017-07-31T03:02:57.948Z,100089.73
2017-07-31T03:05:25.609Z,100095.74
2017-07-31T03:07:53.681Z,100100.02
2017-07-31T03:10:21.514Z,100097.95
2017-07-31T03:12:49.213Z,100097.81
2017-07-31T03:15:17.126Z,100098.98
2017-07-31T03:17:45.092Z,100094.74
2017-07-31T03:20:13.018Z,100104.30
2017-07-31T03:22:41.087Z,100102.94
2017-07-31T03:25:08.795Z,100107.73
2017-07-31T03:27:36.717Z,100101.53
2017-07-31T03:30:04.689Z,100103.47
2017-07-31T03:32:32.524Z,100099.17
2017-07-31T03:35:00.243Z,100113.76
2017-07-31T03:37:27.958Z,100112.16
2017-07-31T03:39:55.700Z,100120.68
2017-07-31T03:42:23.411Z,100111.90
2017-07-31T03:44:51.432Z,100113.84
2017-07-31T03:47:19.131Z,100112.05
2017-07-31T03:49:47.017Z,100106.56
2017-07-31T03:52:15.058Z,100113.54
2017-07-31T03:54:43.000Z,100109.21
2017-07-31T03:57:10.820Z,100112.17
2017-07-31T03:59:38.733Z,100099.83
2017-07-31T04:02:06.752Z,100099.58
2017-07-31T04:04:34.468Z,100104.91
2017-07-31T04:07:02.337Z,100106.31
2017-07-31T04:09:30.158Z,100101.64
2017-07-31T04:11:57.813Z,100103.91
2017-07-31T04:14:25.883Z,100108.38
2017-07-31T04:16:53.548Z,100106.10
2017-07-31T04:19:21.412Z,100103.70
2017-07-31T04:21:49.074Z,100105.73
2017-07-31T04:24:16.928Z,100108.32
2017-07-31T04:26:44.597Z,100109.20
2017-07-31T04:29:12.674Z,100107.48
2017-07-31T04:31:40.510Z,100114.16
2017-07-31T04:34:08.324Z,100117.60
2017-07-31T04:36:36.167Z,100120.24
2017-07-31T04:39:04.058Z,100118.05
2017-07-31T04:41:32.010Z,100116.95
2017-07-31T04:43:59.792Z,100118.28
2017-07-31T04:46:27.541Z,100118.91
2017-07-31T04:48:55.253Z,100119.02
2017-07-31T04:51:23.119Z,100119.78
2017-07-31T04:53:50.939Z,100115.77
2017-07-31T04:56:18.598Z,100120.84
2017-07-31T04:58:46.596Z,100120.77
2017-07-31T05:01:14.387Z,100124.64
2017-07-31T05:03:42.254Z,100132.39
2017-07-31T05:06:10.122Z,100133.78
2017-07-31T05:08:37.990Z,100134.13
2017-07-31T05:11:05.858Z,100133.41
2017-07-31T05:13:33.871Z,100135.19
2017-07-31T05:16:01.537Z,100139.86
2017-07-31T05:18:29.209Z,100142.83
2017-07-31T05:20:57.251Z,100145.16
2017-07-31T05:23:25.022Z,100142.19
2017-07-31T05:25:52.796Z,100136.31
2017-07-31T05:28:20.470Z,100132.63
2017-07-31T05:30:48.124Z,100132.66
2017-07-31T05:33:15.958Z,100142.77
2017-07-31T05:35:43.828Z,100143.38
2017-07-31T05:38:11.691Z,100144.75
2017-07-31T05:40:39.439Z,100144.89
2017-07-31T05:43:07.306Z,100143.53
2017-07-31T05:45:35.173Z,100142.20
2017-07-31T05:48:03.090Z,100140.68
2017-07-31T05:50:30.880Z,100145.63
2017-07-31T05:52:58.922Z,100146.86
2017-07-31T05:55:26.765Z,100145.03
2017-07-31T05:57:54.863Z,100152.47
2017-07-31T06:00:22.876Z,100146.95
2017-07-31T06:02:50.604Z,100146.43
2017-07-31T06:05:18.536Z,100146.44
2017-07-31T06:07:46.532Z,100148.03
2017-07-31T06:10:14.371Z,100151.63
2017-07-31T06:12:42.266Z,100144.52
2017-07-31T06:15:10.136Z,100148.27
2017-07-31T06:17:37.798Z,100153.20
2017-07-31T06:20:05.867Z,100150.23
2017-07-31T06:22:33.736Z,100150.67
2017-07-31T06:25:01.604Z,100151.91
2017-07-31T06:27:29.617Z,100147.94
2017-07-31T06:29:57.460Z,100144.53
2017-07-31T06:32:25.414Z,100148.24
2017-07-31T06:34:53.467Z,100154.39
2017-07-31T06:37:21.163Z,100144.24
2017-07-31T06:39:48.806Z,100151.72
2017-07-31T06:42:16.721Z,100150.38
2017-07-31T06:44:44.741Z,100149.58
2017-07-31T06:47:12.603Z,100148.76
2017-07-31T06:49:40.624Z,100159.45
2017-07-31T06:52:08.341Z,100151.52
2017-07-31T06:54:36.133Z,100152.37
2017-07-31T06:57:03.965Z,100157.20
2017-07-31T06:59:31.634Z,100158.05
2017-07-31T07:01:59.300Z,100152.00
2017-07-31T07:04:27.167Z,100148.69
2017-07-31T07:06:54.895Z,100146.45
2017-07-31T07:09:22.898Z,100149.27
2017-07-31T07:11:50.753Z,100149.70
2017-07-31T07:14:18.418Z,100151.14
2017-07-31T07:16:46.264Z,100155.75
2017-07-31T07:19:14.134Z,100153.09
2017-07-31T07:21:41.823Z,100149.48
2017-07-31T07:24:09.539Z,100153.42
2017-07-31T07:26:37.411Z,100154.31
2017-07-31T07:29:05.278Z,100148.52
2017-07-31T07:31:33.194Z,100150.56
2017-07-31T07:34:00.957Z,100147.58
2017-07-31T07:36:28.623Z,100150.17
2017-07-31T07:38:56.290Z,100144.28
2017-07-31T07:41:24.315Z,100142.67
2017-07-31T07:43:52.217Z,100140.55
2017-07-31T07:46:19.879Z,100149.58
2017-07-31T07:48:47.842Z,100152.61
2017-07-31T07:51:15.782Z,100143.56
2017-07-31T07:53:43.685Z,100148.52
2017-07-31T07:56:11.756Z,100147.67
2017-07-31T07:58:39.608Z,100141.31
2017-07-31T08:01:07.355Z,100136.48
2017-07-31T08:03:35.342Z,100139.77
2017-07-31T08:06:03.213Z,100141.77
2017-07-31T08:08:30.954Z,100141.05
2017-07-31T08:10:58.958Z,100144.83
2017-07-31T08:13:26.619Z,100139.95
2017-07-31T08:15:54.286Z,100136.63
2017-07-31T08:18:22.148Z,100140.88
2017-07-31T08:20:50.014Z,100138.34
2017-07-31T08:23:17.857Z,100134.25
2017-07-31T08:25:45.652Z,100125.06
2017-07-31T08:28:13.412Z,100126.36
2017-07-31T08:30:41.261Z,100131.84
2017-07-31T08:33:09.330Z,100143.78
2017-07-31T08:35:37.071Z,100137.80
2017-07-31T08:38:05.090Z,100134.05
2017-07-31T08:40:33.157Z,100130.81
2017-07-31T08:43:00.997Z,100129.82
2017-07-31T08:45:28.683Z,100129.97
2017-07-31T08:47:56.530Z,100127.50
2017-07-31T08:50:24.397Z,100129.42
2017-07-31T08:52:52.266Z,100124.72
2017-07-31T08:55:20.087Z,100130.33
2017-07-31T08:57:48.029Z,100121.06
2017-07-31T09:00:15.868Z,100119.77
2017-07-31T09:02:43.941Z,100122.52
2017-07-31T09:05:11.681Z,100120.30
2017-07-31T09:07:39.588Z,100121.40
2017-07-31T09:10:07.921Z,100116.46
2017-07-31T09:12:35.882Z,100112.48
2017-07-31T09:15:03.704Z,100115.72
2017-07-31T09:17:31.496Z,100109.48
2017-07-31T09:19:59.184Z,100114.28
2017-07-31T09:22:26.882Z,100101.83
2017-07-31T09:24:54.942Z,100109.84
2017-07-31T09:27:22.631Z,100113.64
2017-07-31T09:29:50.671Z,100106.59
2017-07-31T09:32:18.658Z,100106.29
2017-07-31T09:34:46.543Z,100102.22
2017-07-31T09:37:14.504Z,100099.00
2017-07-31T09:39:42.547Z,100106.41
2017-07-31T09:42:10.290Z,100097.24
2017-07-31T09:44:38.258Z,100097.56
2017-07-31T09:47:06.379Z,100100.66
2017-07-31T09:49:34.169Z,100103.80
2017-07-31T09:52:02.116Z,100089.48
2017-07-31T09:54:29.867Z,100103.36
2017-07-31T09:56:57.646Z,100091.27
2017-07-31T09:59:25.511Z,100095.91
2017-07-31T10:01:53.353Z,100098.19
2017-07-31T10:04:21.033Z,100091.75
2017-07-31T10:06:48.713Z,100094.00
2017-07-31T10:09:16.706Z,100095.89
2017-07-31T10:11:44.640Z,100098.31
2017-07-31T10:14:12.491Z,100098.57
2017-07-31T10:16:40.559Z,100100.95
2017-07-31T10:19:08.351Z,100094.34
2017-07-31T10:21:36.312Z,100098.80
2017-07-31T10:24:04.154Z,100090.98
2017-07-31T10:26:31.841Z,100095.73
2017-07-31T10:28:59.695Z,100101.62
2017-07-31T10:31:27.441Z,100100.11
2017-07-31T10:33:55.050Z,100089.73
2017-07-31T10:36:22.693Z,100090.93
2017-07-31T10:38:50.360Z,100092.33
2017-07-31T10:41:18.221Z,100092.11
2017-07-31T10:43:46.074Z,100088.22
2017-07-31T10:46:13.823Z,100086.27
2017-07-31T10:48:41.787Z,100091.17
2017-07-31T10:51:09.504Z,100092.13
2017-07-31T10:53:37.540Z,100097.34
2017-07-31T10:56:05.287Z,100090.81
2017-07-31T10:58:33.254Z,100083.73
2017-07-31T11:01:01.123Z,100095.17
2017-07-31T11:03:28.832Z,100096.75
2017-07-31T11:05:56.704Z,100085.55
2017-07-31T11:08:24.700Z,100090.08
2017-07-31T11:10:52.627Z,100095.46
2017-07-31T11:13:20.494Z,100085.72
2017-07-31T11:15:48.453Z,100088.79
2017-07-31T11:18:16.434Z,100090.80
2017-07-31T11:20:44.098Z,100092.75
2017-07-31T11:23:12.165Z,100085.31
2017-07-31T11:25:40.021Z,100095.52
2017-07-31T11:28:07.860Z,100089.59
2017-07-31T11:30:35.625Z,100092.19
2017-07-31T11:33:03.637Z,100093.16
2017-07-31T11:35:31.327Z,100083.89
2017-07-31T11:37:59.309Z,100079.34
2017-07-31T11:40:27.029Z,100083.98
2017-07-31T11:42:54.867Z,100079.45
2017-07-31T11:45:22.763Z,100081.09
2017-07-31T11:47:50.478Z,100077.34
2017-07-31T11:50:18.286Z,100084.33
2017-07-31T11:52:46.159Z,100077.60
2017-07-31T11:55:13.880Z,100069.75
2017-07-31T11:57:41.893Z,100063.89
2017-07-31T12:00:09.770Z,100064.15
2017-07-31T12:02:37.627Z,100067.16
2017-07-31T12:05:05.351Z,100058.63
2017-07-31T12:07:33.339Z,100063.02
2017-07-31T12:10:01.052Z,100060.31
2017-07-31T12:12:29.051Z,100053.63
2017-07-31T12:14:56.767Z,100066.77
2017-07-31T12:17:24.427Z,100048.16
2017-07-31T12:19:52.081Z,100054.02
2017-07-31T12:22:19.955Z,100051.30
2017-07-31T12:24:47.664Z,100054.89
2017-07-31T12:27:15.485Z,100054.54
2017-07-31T12:29:43.523Z,100037.56
2017-07-31T12:32:11.387Z,100057.48
2017-07-31T12:34:39.256Z,100058.78
2017-07-31T12:37:07.000Z,100054.37
2017-07-31T12:39:34.867Z,100043.66
2017-07-31T12:42:02.491Z,100050.30
2017-07-31T12:44:30.176Z,100043.06
2017-07-31T12:46:57.796Z,100054.80
2017-07-31T12:49:25.515Z,100061.84
2017-07-31T12:51:53.327Z,100051.33
2017-07-31T12:54:20.992Z,100053.52
2017-07-31T12:56:48.837Z,100054.28
2017-07-31T12:59:16.682Z,100066.02
2017-07-31T13:01:44.571Z,100058.58
2017-07-31T13:04:12.637Z,100068.05
2017-07-31T13:06:40.734Z,100058.77
2017-07-31T13:09:08.451Z,100059.16
2017-07-31T13:11:36.254Z,100065.77
2017-07-31T13:14:03.986Z,100052.89
2017-07-31T13:16:31.791Z,100063.80
2017-07-31T13:18:59.656Z,100070.69
2017-07-31T13:21:27.319Z,100061.40
2017-07-31T13:23:55.028Z,100065.33
2017-07-31T13:26:22.647Z,100072.28
2017-07-31T13:28:50.318Z,100067.41
2017-07-31T13:31:18.154Z,100065.52
2017-07-31T13:33:46.020Z,100074.91
2017-07-31T13:36:13.886Z,100065.41
2017-07-31T13:38:41.566Z,100066.48
2017-07-31T13:41:09.296Z,100071.67
2017-07-31T13:43:37.303Z,100067.26
2017-07-31T13:46:05.006Z,100070.08
2017-07-31T13:48:32.839Z,100070.27
2017-07-31T13:51:00.668Z,100070.23
2017-07-31T13:53:28.461Z,100067.45
2017-07-31T13:55:56.431Z,100070.14
2017-07-31T13:58:24.447Z,100068.40
2017-07-31T14:00:52.287Z,100070.63
2017-07-31T14:03:20.036Z,100066.08
2017-07-31T14:05:48.103Z,100062.73
2017-07-31T14:08:15.941Z,100063.63
2017-07-31T14:10:43.808Z,100067.86
2017-07-31T14:13:11.700Z,100065.00
2017-07-31T14:15:39.358Z,100065.64
2017-07-31T14:18:07.206Z,100073.03
2017-07-31T14:20:35.075Z,100073.59
2017-07-31T14:23:02.968Z,100082.35
2017-07-31T14:25:30.633Z,100071.24
2017-07-31T14:27:58.553Z,100080.66
2017-07-31T14:30:26.152Z,100065.64
2017-07-31T14:32:54.009Z,100079.83
2017-07-31T14:35:21.950Z,100067.17
2017-07-31T14:37:49.764Z,100068.70
2017-07-31T14:40:17.417Z,100071.48
2017-07-31T14:42:45.492Z,100071.42
2017-07-31T14:45:13.221Z,100071.77
2017-07-31T14:47:41.064Z,100066.16
2017-07-31T14:50:09.093Z,100072.22
2017-07-31T14:52:36.926Z,100070.66
2017-07-31T14:55:04.667Z,100063.57
2017-07-31T14:57:32.721Z,100065.39
2017-07-31T15:00:00.544Z,100066.53
2017-07-31T15:02:28.397Z,100065.64
2017-07-31T15:04:56.231Z,100064.28
2017-07-31T15:07:24.145Z,100065.62
2017-07-31T15:09:51.730Z,100063.17
2017-07-31T15:12:19.589Z,100065.51
2017-07-31T15:14:47.404Z,100069.66
2017-07-31T15:17:15.213Z,100067.23
2017-07-31T15:19:43.267Z,100067.77
2017-07-31T15:22:10.950Z,100059.53
2017-07-31T15:24:38.674Z,100065.05
2017-07-31T15:27:06.663Z,100065.81
2017-07-31T15:29:34.257Z,100065.06
2017-07-31T15:32:02.213Z,100062.64
2017-07-31T15:34:30.269Z,100062.08
2017-07-31T15:36:57.867Z,100059.62
2017-07-31T15:39:25.614Z,100058.02
2017-07-31T15:41:53.270Z,100059.47
2017-07-31T15:44:20.860Z,100054.34
2017-07-31T15:46:48.589Z,100056.52
2017-07-31T15:49:16.283Z,100063.58
2017-07-31T15:51:43.989Z,100059.58
2017-07-31T15:54:11.992Z,100064.22
2017-07-31T15:56:39.840Z,100064.51
2017-07-31T15:59:07.713Z,100066.31
2017-07-31T16:01:35.621Z,100068.19
2017-07-31T16:04:03.461Z,100059.09
2017-07-31T16:06:31.242Z,100065.66
2017-07-31T16:08:59.360Z,100063.64
2017-07-31T16:11:27.271Z,100058.08
2017-07-31T16:13:54.932Z,100062.54
2017-07-31T16:16:22.603Z,100067.13
2017-07-31T16:18:50.254Z,100065.56
2017-07-31T16:21:17.921Z,100066.11
2017-07-31T16:23:45.956Z,100065.08
2017-07-31T16:26:13.828Z,100067.69
2017-07-31T16:28:41.694Z,100065.30
2017-07-31T16:31:09.791Z,100063.93
2017-07-31T16:33:37.457Z,100062.32
2017-07-31T16:36:05.175Z,100062.91
2017-07-31T16:38:38.918Z,100067.31
2017-07-31T16:41:06.633Z,100070.19
2017-07-31T16:43:46.137Z,100063.06
2017-07-31T16:46:23.772Z,100067.13
2017-07-31T16:49:03.360Z,100066.23
2017-07-31T16:51:30.957Z,100058.81
2017-07-31T16:53:58.792Z,100068.61
2017-07-31T16:56:26.560Z,100070.56
2017-07-31T16:58:54.402Z,100075.58
2017-07-31T17:01:22.083Z,100074.36
2017-07-31T17:03:50.134Z,100075.03
2017-07-31T17:06:17.815Z,100079.97
2017-07-31T17:08:45.669Z,100083.23
2017-07-31T17:11:13.757Z,100079.58
2017-07-31T17:13:41.426Z,100071.70
2017-07-31T17:16:09.074Z,100082.67
2017-07-31T17:18:36.951Z,100083.36
2017-07-31T17:21:04.778Z,100082.20
2017-07-31T17:23:32.596Z,100081.30
2017-07-31T17:26:00.340Z,100086.03
2017-07-31T17:28:28.001Z,100089.67
2017-07-31T17:30:55.617Z,100091.95
2017-07-31T17:33:23.432Z,100093.19
2017-07-31T17:35:51.157Z,100103.20
2017-07-31T17:38:18.761Z,100100.37
2017-07-31T17:40:46.827Z,100110.57
2017-07-31T17:43:14.536Z,100111.59
2017-07-31T17:45:42.557Z,100111.84
2017-07-31T17:48:10.454Z,100111.77
2017-07-31T17:50:38.088Z,100115.55
2017-07-31T17:53:06.007Z,100127.55
2017-07-31T17:55:33.718Z,100122.59
2017-07-31T17:58:01.486Z,100124.87
2017-07-31T18:00:29.343Z,100126.98
2017-07-31T18:02:57.197Z,100125.98
2017-07-31T18:05:24.785Z,100126.94
2017-07-31T18:07:52.753Z,100129.91
2017-07-31T18:10:20.419Z,100133.64
2017-07-31T18:12:48.279Z,100129.86
2017-07-31T18:15:16.143Z,100135.55
2017-07-31T18:17:43.978Z,100132.86
2017-07-31T18:20:11.791Z,100142.66
2017-07-31T18:22:39.541Z,100150.94
2017-07-31T18:25:07.411Z,100148.33
2017-07-31T18:27:35.273Z,100154.73
2017-07-31T18:30:03.344Z,100152.41
2017-07-31T18:32:31.327Z,100162.09
2017-07-31T18:34:59.497Z,100164.02
2017-07-31T18:37:27.950Z,100167.65
2017-07-31T18:39:55.609Z,100172.59
2017-07-31T18:42:23.373Z,100163.07
2017-07-31T18:44:51.360Z,100169.06
2017-07-31T18:47:19.031Z,100170.27
2017-07-31T18:49:46.706Z,100173.06
2017-07-31T18:52:14.560Z,100179.16
2017-07-31T18:54:42.776Z,100173.70
2017-07-31T18:57:10.876Z,100173.03
2017-07-31T18:59:38.993Z,100173.33
2017-07-31T19:02:06.953Z,100181.12
2017-07-31T19:04:34.926Z,100184.67
2017-07-31T19:07:02.871Z,100183.81
2017-07-31T19:09:31.071Z,100185.19
2017-07-31T19:11:59.038Z,100186.88
2017-07-31T19:14:27.117Z,100185.34
2017-07-31T19:16:55.394Z,100187.95
2017-07-31T19:19:23.835Z,100191.64
2017-07-31T19:21:51.941Z,100191.63
2017-07-31T19:24:20.292Z,100193.52
2017-07-31T19:26:48.424Z,100196.11
2017-07-31T19:29:16.526Z,100198.64
2017-07-31T19:31:44.656Z,100201.05
2017-07-31T19:34:12.942Z,100201.48
2017-07-31T19:36:40.827Z,100201.41
2017-07-31T19:39:08.894Z,100198.19
2017-07-31T19:41:37.039Z,100201.74
2017-07-31T19:44:05.111Z,100203.02
2017-07-31T19:46:32.868Z,100204.56
2017-07-31T19:49:01.100Z,100208.42
2017-07-31T19:51:29.429Z,100207.19
2017-07-31T19:53:57.381Z,100208.95
2017-07-31T19:56:25.215Z,100213.36
2017-07-31T19:58:52.996Z,100207.00
2017-07-31T20:01:21.162Z,100214.47
2017-07-31T20:03:48.947Z,100214.91
2017-07-31T20:06:16.845Z,100216.83
2017-07-31T20:08:44.895Z,100228.25
2017-07-31T20:11:12.844Z,100228.67
2017-07-31T20:13:40.655Z,100237.41
2017-07-31T20:16:08.574Z,100237.54
2017-07-31T20:18:36.563Z,100241.36
2017-07-31T20:21:04.493Z,100237.96
2017-07-31T20:23:32.495Z,100248.18
2017-07-31T20:26:00.217Z,100241.77
2017-07-31T20:28:28.037Z,100242.58
2017-07-31T20:30:55.650Z,100236.17
2017-07-31T20:33:23.555Z,100238.92
2017-07-31T20:35:51.608Z,100240.83
2017-07-31T20:38:19.490Z,100248.98
2017-07-31T20:40:47.098Z,100246.66
2017-07-31T20:43:15.115Z,100243.68
2017-07-31T20:45:43.086Z,100242.85
2017-07-31T20:48:11.193Z,100257.98
2017-07-31T20:50:39.410Z,100256.20
2017-07-31T20:53:07.103Z,100263.56
2017-07-31T20:55:34.815Z,100255.52
2017-07-31T20:58:02.785Z,100258.67
2017-07-31T21:00:30.499Z,100263.30
2017-07-31T21:02:58.162Z,100272.97
2017-07-31T21:05:26.222Z,100277.16
2017-07-31T21:07:54.318Z,100278.80
2017-07-31T21:10:22.350Z,100284.91
2017-07-31T21:12:50.697Z,100280.41
2017-07-31T21:15:18.554Z,100284.41
2017-07-31T21:17:46.584Z,100284.46
2017-07-31T21:20:14.291Z,100282.08
2017-07-31T21:22:41.935Z,100291.47
2017-07-31T21:25:09.532Z,100285.86
2017-07-31T21:27:37.240Z,100292.81
2017-07-31T21:30:04.837Z,100295.88
2017-07-31T21:32:32.567Z,100298.88
2017-07-31T21:35:00.432Z,100303.88
2017-07-31T21:37:28.088Z,100304.56
2017-07-31T21:39:55.701Z,100300.45
2017-07-31T21:42:23.401Z,100299.66
2017-07-31T21:44:51.086Z,100306.22
2017-07-31T21:47:18.919Z,100309.77
2017-07-31T21:49:46.788Z,100302.17
2017-07-31T21:52:14.479Z,100304.63
2017-07-31T21:54:42.109Z,100311.94
2017-07-31T21:57:09.778Z,100302.69
2017-07-31T21:59:37.406Z,100311.13
2017-07-31T22:02:05.025Z,100310.41
2017-07-31T22:04:32.711Z,100309.16
2017-07-31T22:07:00.345Z,100315.00
2017-07-31T22:09:28.245Z,100314.42
2017-07-31T22:11:55.963Z,100319.05
2017-07-31T22:14:23.689Z,100307.63
2017-07-31T22:16:57.145Z,100315.61
2017-07-31T22:19:25.072Z,100312.03
2017-07-31T22:21:58.291Z,100315.89
2017-07-31T22:24:26.379Z,100315.55
2017-07-31T22:26:54.132Z,100310.86
2017-07-31T22:29:21.790Z,100307.20
2017-07-31T22:31:49.633Z,100306.28
2017-07-31T22:34:17.373Z,100313.62
2017-07-31T22:36:45.367Z,100306.34
2017-07-31T22:39:13.056Z,100303.62
2017-07-31T22:41:40.898Z,100303.31
2017-07-31T22:44:08.554Z,100301.23
2017-07-31T22:46:36.241Z,100304.63
2017-07-31T22:49:03.914Z,100299.59
2017-07-31T22:51:31.917Z,100307.75
2017-07-31T22:53:59.852Z,100309.42
2017-07-31T22:56:27.571Z,100307.34
2017-07-31T22:58:55.563Z,100304.30
2017-07-31T23:01:23.242Z,100305.17
2017-07-31T23:03:50.918Z,100299.30
2017-07-31T23:06:18.554Z,100307.50
2017-07-31T23:08:46.153Z,100308.98
2017-07-31T23:11:13.780Z,100312.88
2017-07-31T23:13:41.443Z,100314.39
2017-07-31T23:16:09.058Z,100310.18
2017-07-31T23:18:36.680Z,100316.77
2017-07-31T23:21:04.472Z,100310.44
2017-07-31T23:23:32.084Z,100311.27
2017-07-31T23:25:59.728Z,100314.78
2017-07-31T23:28:27.406Z,100311.97
2017-07-31T23:30:55.010Z,100316.61
2017-07-31T23:33:22.669Z,100302.81
2017-07-31T23:35:50.360Z,100316.34
2017-07-31T23:38:17.980Z,100318.49
2017-07-31T23:40:45.613Z,100312.03
2017-07-31T23:43:13.299Z,100312.03
2017-07-31T23:45:40.923Z,100308.42
2017-07-31T23:48:08.681Z,100316.13
2017-07-31T23:50:36.669Z,100314.73
2017-07-31T23:53:04.475Z,100308.45
2017-07-31T23:55:32.117Z,100314.78
2017-07-31T23:57:59.797Z,100313.61
